sensor_id;sensor_type;location;lat;lon;timestamp;P1;durP1;ratioP1;P2;durP2;ratioP2
2756;SDS011;1386;50.862;6.494;2023-04-03T05:25:15;8.40;;;4.70;;
2756;SDS011;1386;50.862;6.494;2023-04-03T05:27:43;7.03;;;5.90;;
2756;SDS011;1386;50.862;6.494;2023-04-03T05:30:15;8.35;;;5.25;;
2756;SDS011;1386;50.862;6.494;2023-04-03T05:32:44;6.13;;;4.60;;
2756;SDS011;1386;50.862;6.494;2023-04-03T05:35:17;6.38;;;5.78;;
2756;SDS011;1386;50.862;6.494;2023-04-03T05:39:02;6.43;;;5.82;;
2756;SDS011;1386;50.862;6.494;2023-04-03T05:40:39;5.95;;;5.00;;
2756;SDS011;1386;50.862;6.494;2023-04-03T05:43:06;7.32;;;6.03;;
2756;SDS011;1386;50.862;6.494;2023-04-03T05:45:40;10.63;;;6.40;;
2756;SDS011;1386;50.862;6.494;2023-04-03T05:48:13;6.38;;;5.78;;
2756;SDS011;1386;50.862;6.494;2023-04-03T05:50:40;6.88;;;6.25;;
2756;SDS011;1386;50.862;6.494;2023-04-03T05:53:09;6.95;;;5.43;;
2756;SDS011;1386;50.862;6.494;2023-04-03T05:55:55;7.97;;;6.10;;
2756;SDS011;1386;50.862;6.494;2023-04-03T05:58:25;8.85;;;6.85;;
2756;SDS011;1386;50.862;6.494;2023-04-03T06:00:52;8.77;;;6.18;;
2756;SDS011;1386;50.862;6.494;2023-04-03T06:03:20;8.73;;;6.47;;
2756;SDS011;1386;50.862;6.494;2023-04-03T06:05:57;8.38;;;6.45;;
2756;SDS011;1386;50.862;6.494;2023-04-03T06:08:30;7.85;;;6.00;;
2756;SDS011;1386;50.862;6.494;2023-04-03T06:10:59;7.28;;;5.75;;
2756;SDS011;1386;50.862;6.494;2023-04-03T06:13:30;6.13;;;5.63;;
2756;SDS011;1386;50.862;6.494;2023-04-03T06:15:57;7.03;;;5.50;;
2756;SDS011;1386;50.862;6.494;2023-04-03T06:18:23;8.68;;;6.30;;
2756;SDS011;1386;50.862;6.494;2023-04-03T06:20:50;5.53;;;5.00;;
2756;SDS011;1386;50.862;6.494;2023-04-03T06:23:17;8.75;;;6.10;;
2756;SDS011;1386;50.862;6.494;2023-04-03T06:25:44;7.45;;;6.05;;
2756;SDS011;1386;50.862;6.494;2023-04-03T06:28:13;6.57;;;5.90;;
2756;SDS011;1386;50.862;6.494;2023-04-03T06:30:40;6.50;;;5.90;;
2756;SDS011;1386;50.862;6.494;2023-04-03T06:33:09;8.00;;;5.65;;
2756;SDS011;1386;50.862;6.494;2023-04-03T06:35:36;8.80;;;5.75;;
2756;SDS011;1386;50.862;6.494;2023-04-03T06:38:03;7.75;;;5.78;;
2756;SDS011;1386;50.862;6.494;2023-04-03T06:40:34;6.73;;;5.27;;
2756;SDS011;1386;50.862;6.494;2023-04-03T06:43:08;8.30;;;6.20;;
2756;SDS011;1386;50.862;6.494;2023-04-03T07:30:13;6.57;;;4.40;;
2756;SDS011;1386;50.862;6.494;2023-04-03T07:35:56;5.37;;;3.60;;
2756;SDS011;1386;50.862;6.494;2023-04-03T07:38:23;6.57;;;3.93;;
2756;SDS011;1386;50.862;6.494;2023-04-03T07:40:56;6.07;;;3.70;;
2756;SDS011;1386;50.862;6.494;2023-04-03T07:43:39;8.93;;;3.67;;
2756;SDS011;1386;50.862;6.494;2023-04-03T07:46:10;4.90;;;3.20;;
2756;SDS011;1386;50.862;6.494;2023-04-03T07:48:37;6.80;;;3.63;;
2756;SDS011;1386;50.862;6.494;2023-04-03T07:51:06;3.70;;;2.93;;
2756;SDS011;1386;50.862;6.494;2023-04-03T07:53:36;8.87;;;3.77;;
2756;SDS011;1386;50.862;6.494;2023-04-03T07:56:16;4.60;;;3.50;;
2756;SDS011;1386;50.862;6.494;2023-04-03T07:58:43;3.50;;;3.20;;
2756;SDS011;1386;50.862;6.494;2023-04-03T08:01:16;9.00;;;3.73;;
2756;SDS011;1386;50.862;6.494;2023-04-03T08:03:43;5.43;;;3.63;;
2756;SDS011;1386;50.862;6.494;2023-04-03T08:06:37;4.87;;;3.70;;
2756;SDS011;1386;50.862;6.494;2023-04-03T08:09:13;5.43;;;3.90;;
2756;SDS011;1386;50.862;6.494;2023-04-03T08:12:04;6.10;;;4.03;;
2756;SDS011;1386;50.862;6.494;2023-04-03T08:14:31;5.43;;;3.97;;
2756;SDS011;1386;50.862;6.494;2023-04-03T08:17:00;8.03;;;3.80;;
2756;SDS011;1386;50.862;6.494;2023-04-03T08:19:29;5.83;;;3.90;;
2756;SDS011;1386;50.862;6.494;2023-04-03T08:21:59;5.10;;;3.70;;
2756;SDS011;1386;50.862;6.494;2023-04-03T08:24:27;3.90;;;3.40;;
2756;SDS011;1386;50.862;6.494;2023-04-03T08:26:57;6.70;;;4.83;;
2756;SDS011;1386;50.862;6.494;2023-04-03T08:29:30;7.73;;;3.73;;
2756;SDS011;1386;50.862;6.494;2023-04-03T08:31:57;5.13;;;4.33;;
2756;SDS011;1386;50.862;6.494;2023-04-03T08:34:25;9.03;;;4.10;;
2756;SDS011;1386;50.862;6.494;2023-04-03T08:36:55;8.07;;;3.77;;
2756;SDS011;1386;50.862;6.494;2023-04-03T08:39:22;4.27;;;3.57;;
2756;SDS011;1386;50.862;6.494;2023-04-03T08:41:49;8.90;;;4.27;;
2756;SDS011;1386;50.862;6.494;2023-04-03T08:44:17;4.20;;;3.63;;
2756;SDS011;1386;50.862;6.494;2023-04-03T08:47:00;4.43;;;3.23;;
2756;SDS011;1386;50.862;6.494;2023-04-03T08:49:32;6.17;;;2.90;;
2756;SDS011;1386;50.862;6.494;2023-04-03T08:52:07;4.33;;;3.57;;
2756;SDS011;1386;50.862;6.494;2023-04-03T08:54:40;5.17;;;3.37;;
2756;SDS011;1386;50.862;6.494;2023-04-03T08:57:15;5.10;;;2.60;;
2756;SDS011;1386;50.862;6.494;2023-04-03T09:00:04;5.20;;;2.97;;
2756;SDS011;1386;50.862;6.494;2023-04-03T09:05:32;6.27;;;2.50;;
2756;SDS011;1386;50.862;6.494;2023-04-03T09:08:07;2.73;;;2.10;;
2756;SDS011;1386;50.862;6.494;2023-04-03T09:10:45;3.63;;;2.60;;
2756;SDS011;1386;50.862;6.494;2023-04-03T09:13:21;4.47;;;3.10;;
2756;SDS011;1386;50.862;6.494;2023-04-03T09:16:25;7.90;;;2.47;;
2756;SDS011;1386;50.862;6.494;2023-04-03T09:19:02;6.20;;;2.87;;
2756;SDS011;1386;50.862;6.494;2023-04-03T09:21:39;4.57;;;3.13;;
2756;SDS011;1386;50.862;6.494;2023-04-03T09:24:12;3.30;;;2.37;;
2756;SDS011;1386;50.862;6.494;2023-04-03T09:26:42;3.90;;;2.17;;
2756;SDS011;1386;50.862;6.494;2023-04-03T09:29:17;4.90;;;2.30;;
2756;SDS011;1386;50.862;6.494;2023-04-03T09:31:46;9.03;;;2.47;;
2756;SDS011;1386;50.862;6.494;2023-04-03T09:34:17;3.90;;;2.33;;
2756;SDS011;1386;50.862;6.494;2023-04-03T09:36:53;12.00;;;3.30;;
2756;SDS011;1386;50.862;6.494;2023-04-03T09:39:25;4.23;;;2.37;;
2756;SDS011;1386;50.862;6.494;2023-04-03T09:42:18;2.60;;;1.83;;
2756;SDS011;1386;50.862;6.494;2023-04-03T09:44:55;4.70;;;2.67;;
2756;SDS011;1386;50.862;6.494;2023-04-03T09:47:25;4.90;;;2.10;;
2756;SDS011;1386;50.862;6.494;2023-04-03T09:50:08;5.40;;;1.90;;
2756;SDS011;1386;50.862;6.494;2023-04-03T09:52:49;4.40;;;2.20;;
2756;SDS011;1386;50.862;6.494;2023-04-03T09:55:18;2.67;;;1.80;;
2756;SDS011;1386;50.862;6.494;2023-04-03T10:11:21;3.47;;;1.80;;
2756;SDS011;1386;50.862;6.494;2023-04-03T10:13:51;3.10;;;1.87;;
2756;SDS011;1386;50.862;6.494;2023-04-03T10:16:35;3.80;;;1.60;;
2756;SDS011;1386;50.862;6.494;2023-04-03T10:22:31;3.30;;;2.03;;
2756;SDS011;1386;50.862;6.494;2023-04-03T17:59:08;3.90;;;1.93;;
2756;SDS011;1386;50.862;6.494;2023-04-03T18:01:38;2.20;;;1.63;;
2756;SDS011;1386;50.862;6.494;2023-04-03T18:04:05;3.33;;;2.27;;
2756;SDS011;1386;50.862;6.494;2023-04-03T18:06:33;3.00;;;2.07;;
2756;SDS011;1386;50.862;6.494;2023-04-03T18:09:11;4.43;;;1.97;;
2756;SDS011;1386;50.862;6.494;2023-04-03T18:11:40;3.13;;;1.87;;
2756;SDS011;1386;50.862;6.494;2023-04-03T18:14:11;4.33;;;2.13;;
2756;SDS011;1386;50.862;6.494;2023-04-03T18:16:41;3.03;;;1.63;;
2756;SDS011;1386;50.862;6.494;2023-04-03T18:19:08;2.60;;;2.20;;
